sensor_id;sensor_type;location;lat;lon;timestamp;P1;durP1;ratioP1;P2;durP2;ratioP2
73585;SDS011;61865;50.232;18.614;2022-10-16T00:00:06;21.52;;;12.35;;
73585;SDS011;61865;50.232;18.614;2022-10-16T00:02:29;16.08;;;11.55;;
73585;SDS011;61865;50.232;18.614;2022-10-16T00:04:50;17.77;;;11.60;;
73585;SDS011;61865;50.232;18.614;2022-10-16T00:07:12;17.13;;;10.32;;
73585;SDS011;61865;50.232;18.614;2022-10-16T00:09:34;18.08;;;11.20;;
73585;SDS011;61865;50.232;18.614;2022-10-16T00:11:56;12.75;;;9.75;;
73585;SDS011;61865;50.232;18.614;2022-10-16T00:14:19;16.75;;;10.73;;
73585;SDS011;61865;50.232;18.614;2022-10-16T00:16:41;14.98;;;10.07;;
73585;SDS011;61865;50.232;18.614;2022-10-16T00:19:04;15.20;;;10.73;;
73585;SDS011;61865;50.232;18.614;2022-10-16T00:21:27;18.15;;;10.45;;
73585;SDS011;61865;50.232;18.614;2022-10-16T00:23:50;16.10;;;9.93;;
73585;SDS011;61865;50.232;18.614;2022-10-16T00:26:15;18.60;;;10.90;;
73585;SDS011;61865;50.232;18.614;2022-10-16T00:28:38;13.45;;;10.02;;
73585;SDS011;61865;50.232;18.614;2022-10-16T00:31:03;15.82;;;10.98;;
73585;SDS011;61865;50.232;18.614;2022-10-16T00:33:26;15.05;;;10.70;;
73585;SDS011;61865;50.232;18.614;2022-10-16T00:35:48;18.33;;;10.52;;
73585;SDS011;61865;50.232;18.614;2022-10-16T00:38:10;20.38;;;11.43;;
73585;SDS011;61865;50.232;18.614;2022-10-16T00:40:32;18.02;;;10.48;;
73585;SDS011;61865;50.232;18.614;2022-10-16T00:42:54;14.65;;;10.82;;
73585;SDS011;61865;50.232;18.614;2022-10-16T00:45:16;16.55;;;11.18;;
73585;SDS011;61865;50.232;18.614;2022-10-16T00:47:40;19.45;;;11.75;;
73585;SDS011;61865;50.232;18.614;2022-10-16T00:50:07;16.02;;;11.07;;
73585;SDS011;61865;50.232;18.614;2022-10-16T00:52:32;17.08;;;12.05;;
73585;SDS011;61865;50.232;18.614;2022-10-16T00:54:54;23.58;;;12.80;;
73585;SDS011;61865;50.232;18.614;2022-10-16T00:57:17;18.42;;;12.13;;
73585;SDS011;61865;50.232;18.614;2022-10-16T00:59:40;16.65;;;11.35;;
73585;SDS011;61865;50.232;18.614;2022-10-16T01:02:03;15.57;;;11.95;;
73585;SDS011;61865;50.232;18.614;2022-10-16T01:04:28;17.67;;;11.45;;
73585;SDS011;61865;50.232;18.614;2022-10-16T01:07:01;20.83;;;11.52;;
73585;SDS011;61865;50.232;18.614;2022-10-16T01:09:29;17.75;;;11.48;;
73585;SDS011;61865;50.232;18.614;2022-10-16T01:12:01;14.43;;;10.27;;
73585;SDS011;61865;50.232;18.614;2022-10-16T01:14:31;19.07;;;10.87;;
73585;SDS011;61865;50.232;18.614;2022-10-16T01:17:00;17.35;;;11.07;;
73585;SDS011;61865;50.232;18.614;2022-10-16T01:19:31;21.45;;;11.07;;
73585;SDS011;61865;50.232;18.614;2022-10-16T01:22:05;18.15;;;11.45;;
73585;SDS011;61865;50.232;18.614;2022-10-16T01:24:31;19.58;;;11.00;;
73585;SDS011;61865;50.232;18.614;2022-10-16T01:27:10;18.95;;;10.93;;
73585;SDS011;61865;50.232;18.614;2022-10-16T01:29:34;17.88;;;11.65;;
73585;SDS011;61865;50.232;18.614;2022-10-16T01:32:01;15.25;;;10.75;;
73585;SDS011;61865;50.232;18.614;2022-10-16T01:34:32;18.45;;;11.45;;
73585;SDS011;61865;50.232;18.614;2022-10-16T01:36:57;22.10;;;11.45;;
73585;SDS011;61865;50.232;18.614;2022-10-16T01:39:25;19.70;;;10.85;;
73585;SDS011;61865;50.232;18.614;2022-10-16T01:41:54;19.63;;;11.40;;
73585;SDS011;61865;50.232;18.614;2022-10-16T01:44:21;17.95;;;11.15;;
73585;SDS011;61865;50.232;18.614;2022-10-16T01:46:48;21.83;;;11.18;;
73585;SDS011;61865;50.232;18.614;2022-10-16T01:49:12;16.50;;;11.40;;
73585;SDS011;61865;50.232;18.614;2022-10-16T01:51:34;15.32;;;10.93;;
73585;SDS011;61865;50.232;18.614;2022-10-16T01:53:58;17.25;;;11.18;;
73585;SDS011;61865;50.232;18.614;2022-10-16T01:56:22;19.75;;;11.82;;
73585;SDS011;61865;50.232;18.614;2022-10-16T01:58:47;15.48;;;10.65;;
73585;SDS011;61865;50.232;18.614;2022-10-16T02:01:13;20.83;;;11.77;;
73585;SDS011;61865;50.232;18.614;2022-10-16T02:03:37;18.92;;;11.13;;
73585;SDS011;61865;50.232;18.614;2022-10-16T02:06:03;19.20;;;11.00;;
73585;SDS011;61865;50.232;18.614;2022-10-16T02:08:26;17.00;;;11.20;;
73585;SDS011;61865;50.232;18.614;2022-10-16T02:10:49;19.38;;;10.55;;
73585;SDS011;61865;50.232;18.614;2022-10-16T02:13:14;17.27;;;10.73;;
73585;SDS011;61865;50.232;18.614;2022-10-16T02:15:39;19.02;;;11.98;;
73585;SDS011;61865;50.232;18.614;2022-10-16T02:18:02;20.60;;;11.85;;
73585;SDS011;61865;50.232;18.614;2022-10-16T02:20:27;18.63;;;11.18;;
73585;SDS011;61865;50.232;18.614;2022-10-16T02:22:52;22.13;;;12.35;;
73585;SDS011;61865;50.232;18.614;2022-10-16T02:25:15;16.85;;;11.98;;
73585;SDS011;61865;50.232;18.614;2022-10-16T02:27:43;19.17;;;12.43;;
73585;SDS011;61865;50.232;18.614;2022-10-16T02:30:08;18.75;;;12.13;;
73585;SDS011;61865;50.232;18.614;2022-10-16T02:32:36;16.77;;;11.38;;
73585;SDS011;61865;50.232;18.614;2022-10-16T02:35:01;19.15;;;12.05;;
73585;SDS011;61865;50.232;18.614;2022-10-16T02:37:24;18.52;;;11.75;;
73585;SDS011;61865;50.232;18.614;2022-10-16T02:39:48;22.02;;;13.27;;
73585;SDS011;61865;50.232;18.614;2022-10-16T02:42:10;18.38;;;12.10;;
73585;SDS011;61865;50.232;18.614;2022-10-16T02:44:32;18.45;;;12.38;;
73585;SDS011;61865;50.232;18.614;2022-10-16T02:46:55;16.77;;;11.27;;
73585;SDS011;61865;50.232;18.614;2022-10-16T02:49:16;19.27;;;12.15;;
73585;SDS011;61865;50.232;18.614;2022-10-16T02:51:40;22.13;;;12.77;;
73585;SDS011;61865;50.232;18.614;2022-10-16T02:54:02;22.23;;;12.52;;
73585;SDS011;61865;50.232;18.614;2022-10-16T02:56:23;22.80;;;12.63;;
73585;SDS011;61865;50.232;18.614;2022-10-16T02:58:45;17.67;;;12.43;;
73585;SDS011;61865;50.232;18.614;2022-10-16T03:01:07;18.35;;;11.93;;
73585;SDS011;61865;50.232;18.614;2022-10-16T03:03:29;19.45;;;11.57;;
73585;SDS011;61865;50.232;18.614;2022-10-16T03:05:51;21.65;;;12.48;;
73585;SDS011;61865;50.232;18.614;2022-10-16T03:08:14;20.88;;;11.38;;
73585;SDS011;61865;50.232;18.614;2022-10-16T03:10:36;23.08;;;11.85;;
73585;SDS011;61865;50.232;18.614;2022-10-16T03:12:58;21.42;;;11.32;;
73585;SDS011;61865;50.232;18.614;2022-10-16T03:15:20;17.08;;;10.30;;
73585;SDS011;61865;50.232;18.614;2022-10-16T03:17:41;16.52;;;10.65;;
73585;SDS011;61865;50.232;18.614;2022-10-16T03:20:04;14.80;;;10.18;;
73585;SDS011;61865;50.232;18.614;2022-10-16T03:22:26;18.33;;;10.68;;
73585;SDS011;61865;50.232;18.614;2022-10-16T03:24:50;19.75;;;9.98;;
73585;SDS011;61865;50.232;18.614;2022-10-16T03:27:12;16.42;;;10.48;;
73585;SDS011;61865;50.232;18.614;2022-10-16T03:29:34;13.45;;;9.60;;
73585;SDS011;61865;50.232;18.614;2022-10-16T03:31:56;16.50;;;9.55;;
73585;SDS011;61865;50.232;18.614;2022-10-16T03:34:18;17.13;;;10.02;;
73585;SDS011;61865;50.232;18.614;2022-10-16T03:36:39;16.27;;;10.27;;
73585;SDS011;61865;50.232;18.614;2022-10-16T03:39:01;21.50;;;11.02;;
73585;SDS011;61865;50.232;18.614;2022-10-16T03:41:25;15.40;;;9.82;;
73585;SDS011;61865;50.232;18.614;2022-10-16T03:43:46;12.50;;;8.93;;
73585;SDS011;61865;50.232;18.614;2022-10-16T03:46:08;17.27;;;10.23;;
73585;SDS011;61865;50.232;18.614;2022-10-16T03:48:30;14.20;;;9.07;;
73585;SDS011;61865;50.232;18.614;2022-10-16T03:50:52;17.60;;;9.75;;
73585;SDS011;61865;50.232;18.614;2022-10-16T03:53:15;14.27;;;9.52;;
73585;SDS011;61865;50.232;18.614;2022-10-16T03:55:37;16.13;;;9.18;;
73585;SDS011;61865;50.232;18.614;2022-10-16T03:58:00;16.13;;;9.95;;
73585;SDS011;61865;50.232;18.614;2022-10-16T04:00:22;14.60;;;10.35;;
73585;SDS011;61865;50.232;18.614;2022-10-16T04:02:43;15.18;;;10.15;;
73585;SDS011;61865;50.232;18.614;2022-10-16T04:05:05;17.42;;;9.60;;
73585;SDS011;61865;50.232;18.614;2022-10-16T04:07:28;17.77;;;10.98;;
73585;SDS011;61865;50.232;18.614;2022-10-16T04:09:49;16.13;;;9.95;;
73585;SDS011;61865;50.232;18.614;2022-10-16T04:12:12;18.25;;;10.65;;
73585;SDS011;61865;50.232;18.614;2022-10-16T04:14:35;20.23;;;11.15;;
73585;SDS011;61865;50.232;18.614;2022-10-16T04:16:57;20.17;;;11.65;;
73585;SDS011;61865;50.232;18.614;2022-10-16T04:19:19;18.92;;;11.43;;
73585;SDS011;61865;50.232;18.614;2022-10-16T04:21:40;17.85;;;11.00;;
73585;SDS011;61865;50.232;18.614;2022-10-16T04:24:02;17.00;;;10.77;;
73585;SDS011;61865;50.232;18.614;2022-10-16T04:26:24;16.73;;;10.52;;
73585;SDS011;61865;50.232;18.614;2022-10-16T04:28:46;17.13;;;10.77;;
73585;SDS011;61865;50.232;18.614;2022-10-16T04:31:09;18.45;;;11.32;;
73585;SDS011;61865;50.232;18.614;2022-10-16T04:33:31;19.65;;;13.70;;
73585;SDS011;61865;50.232;18.614;2022-10-16T04:35:57;22.55;;;12.20;;
73585;SDS011;61865;50.232;18.614;2022-10-16T04:38:19;21.77;;;14.10;;
73585;SDS011;61865;50.232;18.614;2022-10-16T04:40:41;20.27;;;12.68;;
73585;SDS011;61865;50.232;18.614;2022-10-16T04:43:09;17.17;;;12.35;;
73585;SDS011;61865;50.232;18.614;2022-10-16T04:45:31;20.85;;;11.45;;
73585;SDS011;61865;50.232;18.614;2022-10-16T04:47:56;19.02;;;12.45;;
73585;SDS011;61865;50.232;18.614;2022-10-16T04:50:18;17.55;;;11.55;;
73585;SDS011;61865;50.232;18.614;2022-10-16T04:52:39;20.00;;;13.32;;
73585;SDS011;61865;50.232;18.614;2022-10-16T04:55:01;19.45;;;11.77;;
73585;SDS011;61865;50.232;18.614;2022-10-16T04:57:24;21.10;;;12.70;;
73585;SDS011;61865;50.232;18.614;2022-10-16T04:59:46;17.05;;;12.05;;
73585;SDS011;61865;50.232;18.614;2022-10-16T05:02:08;17.95;;;13.07;;
73585;SDS011;61865;50.232;18.614;2022-10-16T05:04:31;15.50;;;11.93;;
73585;SDS011;61865;50.232;18.614;2022-10-16T05:06:53;18.48;;;12.57;;
73585;SDS011;61865;50.232;18.614;2022-10-16T05:09:15;18.75;;;12.07;;
73585;SDS011;61865;50.232;18.614;2022-10-16T05:11:37;19.63;;;12.30;;
73585;SDS011;61865;50.232;18.614;2022-10-16T05:13:59;19.20;;;12.68;;
73585;SDS011;61865;50.232;18.614;2022-10-16T05:16:21;20.92;;;13.05;;
73585;SDS011;61865;50.232;18.614;2022-10-16T05:18:43;21.60;;;13.45;;
73585;SDS011;61865;50.232;18.614;2022-10-16T05:21:06;24.13;;;15.52;;
73585;SDS011;61865;50.232;18.614;2022-10-16T05:23:28;25.90;;;14.43;;
73585;SDS011;61865;50.232;18.614;2022-10-16T05:25:53;22.70;;;14.07;;
73585;SDS011;61865;50.232;18.614;2022-10-16T05:28:18;19.55;;;14.27;;
73585;SDS011;61865;50.232;18.614;2022-10-16T05:30:39;21.95;;;14.57;;
73585;SDS011;61865;50.232;18.614;2022-10-16T05:33:01;23.38;;;14.98;;
73585;SDS011;61865;50.232;18.614;2022-10-16T05:35:23;26.75;;;14.05;;
73585;SDS011;61865;50.232;18.614;2022-10-16T05:37:47;25.92;;;16.17;;
73585;SDS011;61865;50.232;18.614;2022-10-16T05:40:09;33.20;;;17.98;;
73585;SDS011;61865;50.232;18.614;2022-10-16T05:42:32;30.05;;;16.73;;
73585;SDS011;61865;50.232;18.614;2022-10-16T05:44:54;25.33;;;15.88;;
73585;SDS011;61865;50.232;18.614;2022-10-16T05:47:16;24.85;;;16.67;;
73585;SDS011;61865;50.232;18.614;2022-10-16T05:49:37;33.67;;;19.13;;
73585;SDS011;61865;50.232;18.614;2022-10-16T05:51:59;26.55;;;16.75;;
73585;SDS011;61865;50.232;18.614;2022-10-16T05:54:23;27.33;;;17.27;;
73585;SDS011;61865;50.232;18.614;2022-10-16T05:56:44;32.42;;;16.60;;
73585;SDS011;61865;50.232;18.614;2022-10-16T05:59:06;29.42;;;17.75;;
73585;SDS011;61865;50.232;18.614;2022-10-16T06:01:28;26.98;;;17.58;;
73585;SDS011;61865;50.232;18.614;2022-10-16T06:03:51;30.08;;;18.27;;
73585;SDS011;61865;50.232;18.614;2022-10-16T06:06:14;29.60;;;18.25;;
73585;SDS011;61865;50.232;18.614;2022-10-16T06:08:37;25.35;;;17.00;;
73585;SDS011;61865;50.232;18.614;2022-10-16T06:11:01;25.70;;;15.98;;
73585;SDS011;61865;50.232;18.614;2022-10-16T06:13:23;26.52;;;16.08;;
73585;SDS011;61865;50.232;18.614;2022-10-16T06:15:45;28.20;;;17.77;;
73585;SDS011;61865;50.232;18.614;2022-10-16T06:18:07;29.48;;;18.10;;
73585;SDS011;61865;50.232;18.614;2022-10-16T06:20:29;24.15;;;16.30;;
73585;SDS011;61865;50.232;18.614;2022-10-16T06:22:51;27.42;;;15.30;;
73585;SDS011;61865;50.232;18.614;2022-10-16T06:25:13;28.65;;;15.82;;
73585;SDS011;61865;50.232;18.614;2022-10-16T06:27:38;25.45;;;15.30;;
73585;SDS011;61865;50.232;18.614;2022-10-16T06:30:01;18.58;;;13.30;;
73585;SDS011;61865;50.232;18.614;2022-10-16T06:32:23;20.48;;;13.48;;
73585;SDS011;61865;50.232;18.614;2022-10-16T06:34:45;23.00;;;13.60;;
73585;SDS011;61865;50.232;18.614;2022-10-16T06:37:07;20.50;;;12.82;;
73585;SDS011;61865;50.232;18.614;2022-10-16T06:39:29;20.75;;;12.18;;
73585;SDS011;61865;50.232;18.614;2022-10-16T06:41:51;23.17;;;12.52;;
73585;SDS011;61865;50.232;18.614;2022-10-16T06:44:14;25.50;;;13.82;;
73585;SDS011;61865;50.232;18.614;2022-10-16T06:46:36;22.27;;;14.15;;
73585;SDS011;61865;50.232;18.614;2022-10-16T06:48:58;22.92;;;13.65;;
73585;SDS011;61865;50.232;18.614;2022-10-16T06:51:20;21.75;;;13.77;;
73585;SDS011;61865;50.232;18.614;2022-10-16T06:53:44;23.08;;;13.95;;
73585;SDS011;61865;50.232;18.614;2022-10-16T06:56:07;21.17;;;13.95;;
73585;SDS011;61865;50.232;18.614;2022-10-16T06:58:30;19.65;;;11.95;;
73585;SDS011;61865;50.232;18.614;2022-10-16T07:00:56;21.40;;;11.68;;
73585;SDS011;61865;50.232;18.614;2022-10-16T07:03:18;19.98;;;10.93;;
73585;SDS011;61865;50.232;18.614;2022-10-16T07:05:39;21.55;;;11.15;;
73585;SDS011;61865;50.232;18.614;2022-10-16T07:08:02;17.25;;;11.57;;
73585;SDS011;61865;50.232;18.614;2022-10-16T07:10:25;21.40;;;11.32;;
73585;SDS011;61865;50.232;18.614;2022-10-16T07:12:47;16.85;;;11.43;;
73585;SDS011;61865;50.232;18.614;2022-10-16T07:15:09;21.70;;;12.40;;
73585;SDS011;61865;50.232;18.614;2022-10-16T07:17:32;21.00;;;11.88;;
73585;SDS011;61865;50.232;18.614;2022-10-16T07:19:54;15.90;;;10.82;;
73585;SDS011;61865;50.232;18.614;2022-10-16T07:22:16;16.70;;;10.85;;
73585;SDS011;61865;50.232;18.614;2022-10-16T07:24:37;16.80;;;10.02;;
73585;SDS011;61865;50.232;18.614;2022-10-16T07:26:59;18.75;;;10.25;;
73585;SDS011;61865;50.232;18.614;2022-10-16T07:29:21;21.77;;;10.80;;
73585;SDS011;61865;50.232;18.614;2022-10-16T07:31:43;21.35;;;10.27;;
73585;SDS011;61865;50.232;18.614;2022-10-16T07:34:07;16.98;;;10.18;;
73585;SDS011;61865;50.232;18.614;2022-10-16T07:36:29;15.82;;;9.60;;
73585;SDS011;61865;50.232;18.614;2022-10-16T07:38:51;16.83;;;10.10;;
73585;SDS011;61865;50.232;18.614;2022-10-16T07:41:14;16.25;;;9.95;;
73585;SDS011;61865;50.232;18.614;2022-10-16T07:43:37;16.77;;;10.13;;
73585;SDS011;61865;50.232;18.614;2022-10-16T07:45:59;17.83;;;9.80;;
73585;SDS011;61865;50.232;18.614;2022-10-16T07:48:21;17.90;;;10.32;;
73585;SDS011;61865;50.232;18.614;2022-10-16T07:50:47;21.83;;;11.20;;
73585;SDS011;61865;50.232;18.614;2022-10-16T07:53:09;16.08;;;10.70;;
73585;SDS011;61865;50.232;18.614;2022-10-16T07:55:31;18.85;;;10.55;;
73585;SDS011;61865;50.232;18.614;2022-10-16T07:57:54;19.90;;;9.88;;
73585;SDS011;61865;50.232;18.614;2022-10-16T08:00:16;19.02;;;10.10;;
73585;SDS011;61865;50.232;18.614;2022-10-16T08:02:38;19.98;;;10.18;;
73585;SDS011;61865;50.232;18.614;2022-10-16T08:05:00;18.60;;;10.40;;
73585;SDS011;61865;50.232;18.614;2022-10-16T08:07:23;14.95;;;9.68;;
73585;SDS011;61865;50.232;18.614;2022-10-16T08:09:48;21.33;;;10.15;;
73585;SDS011;61865;50.232;18.614;2022-10-16T08:12:11;19.10;;;10.65;;
73585;SDS011;61865;50.232;18.614;2022-10-16T08:14:33;23.13;;;10.07;;
73585;SDS011;61865;50.232;18.614;2022-10-16T08:16:55;19.85;;;10.73;;
73585;SDS011;61865;50.232;18.614;2022-10-16T08:19:17;17.92;;;9.38;;
73585;SDS011;61865;50.232;18.614;2022-10-16T08:21:38;17.13;;;10.15;;
73585;SDS011;61865;50.232;18.614;2022-10-16T08:24:02;18.92;;;10.35;;
73585;SDS011;61865;50.232;18.614;2022-10-16T08:26:24;17.75;;;9.48;;
73585;SDS011;61865;50.232;18.614;2022-10-16T08:28:48;16.55;;;9.48;;
73585;SDS011;61865;50.232;18.614;2022-10-16T08:31:12;15.75;;;9.45;;
73585;SDS011;61865;50.232;18.614;2022-10-16T08:33:35;19.58;;;10.88;;
73585;SDS011;61865;50.232;18.614;2022-10-16T08:35:57;16.77;;;9.73;;
73585;SDS011;61865;50.232;18.614;2022-10-16T08:38:19;17.92;;;9.82;;
73585;SDS011;61865;50.232;18.614;2022-10-16T08:40:42;15.93;;;10.25;;
73585;SDS011;61865;50.232;18.614;2022-10-16T08:43:21;20.13;;;9.75;;
73585;SDS011;61865;50.232;18.614;2022-10-16T08:45:58;14.80;;;9.10;;
73585;SDS011;61865;50.232;18.614;2022-10-16T08:48:39;14.63;;;8.48;;
73585;SDS011;61865;50.232;18.614;2022-10-16T08:51:06;13.55;;;8.75;;
73585;SDS011;61865;50.232;18.614;2022-10-16T08:53:30;16.90;;;9.35;;
73585;SDS011;61865;50.232;18.614;2022-10-16T08:55:59;18.15;;;8.82;;
73585;SDS011;61865;50.232;18.614;2022-10-16T08:58:21;13.90;;;8.13;;
73585;SDS011;61865;50.232;18.614;2022-10-16T09:00:47;15.43;;;7.55;;
73585;SDS011;61865;50.232;18.614;2022-10-16T09:03:15;14.05;;;7.95;;
73585;SDS011;61865;50.232;18.614;2022-10-16T09:05:48;23.17;;;8.65;;
73585;SDS011;61865;50.232;18.614;2022-10-16T09:08:23;13.57;;;7.65;;
73585;SDS011;61865;50.232;18.614;2022-10-16T09:10:52;14.45;;;7.75;;
73585;SDS011;61865;50.232;18.614;2022-10-16T09:13:23;15.95;;;8.25;;
73585;SDS011;61865;50.232;18.614;2022-10-16T09:15:51;15.38;;;8.23;;
73585;SDS011;61865;50.232;18.614;2022-10-16T09:18:21;15.77;;;8.38;;
73585;SDS011;61865;50.232;18.614;2022-10-16T09:23:15;11.85;;;7.45;;
73585;SDS011;61865;50.232;18.614;2022-10-16T09:25:39;21.95;;;8.57;;
73585;SDS011;61865;50.232;18.614;2022-10-16T09:28:04;15.73;;;9.15;;
73585;SDS011;61865;50.232;18.614;2022-10-16T09:30:28;12.55;;;7.97;;
73585;SDS011;61865;50.232;18.614;2022-10-16T09:32:51;18.15;;;8.85;;
73585;SDS011;61865;50.232;18.614;2022-10-16T09:35:15;12.23;;;7.85;;
73585;SDS011;61865;50.232;18.614;2022-10-16T09:37:40;16.65;;;7.95;;
73585;SDS011;61865;50.232;18.614;2022-10-16T09:40:04;14.15;;;7.82;;
73585;SDS011;61865;50.232;18.614;2022-10-16T09:42:27;18.30;;;8.00;;
73585;SDS011;61865;50.232;18.614;2022-10-16T09:44:53;14.20;;;7.85;;
73585;SDS011;61865;50.232;18.614;2022-10-16T09:47:17;12.38;;;7.20;;
73585;SDS011;61865;50.232;18.614;2022-10-16T09:49:49;14.00;;;7.45;;
73585;SDS011;61865;50.232;18.614;2022-10-16T09:52:13;12.23;;;7.68;;
73585;SDS011;61865;50.232;18.614;2022-10-16T09:54:40;13.95;;;7.85;;
73585;SDS011;61865;50.232;18.614;2022-10-16T09:57:23;11.93;;;6.80;;
73585;SDS011;61865;50.232;18.614;2022-10-16T09:59:46;16.23;;;7.38;;
73585;SDS011;61865;50.232;18.614;2022-10-16T10:02:08;10.45;;;7.00;;
73585;SDS011;61865;50.232;18.614;2022-10-16T10:04:40;13.10;;;6.88;;
73585;SDS011;61865;50.232;18.614;2022-10-16T10:07:03;11.73;;;6.85;;
73585;SDS011;61865;50.232;18.614;2022-10-16T10:09:26;13.82;;;7.32;;
73585;SDS011;61865;50.232;18.614;2022-10-16T10:11:50;12.32;;;7.50;;
73585;SDS011;61865;50.232;18.614;2022-10-16T10:14:18;15.90;;;7.57;;
73585;SDS011;61865;50.232;18.614;2022-10-16T10:16:43;12.23;;;7.25;;
73585;SDS011;61865;50.232;18.614;2022-10-16T10:19:09;15.48;;;7.78;;
73585;SDS011;61865;50.232;18.614;2022-10-16T10:21:40;15.43;;;7.55;;
73585;SDS011;61865;50.232;18.614;2022-10-16T10:24:02;12.15;;;7.32;;
73585;SDS011;61865;50.232;18.614;2022-10-16T10:26:26;13.77;;;7.50;;
73585;SDS011;61865;50.232;18.614;2022-10-16T10:28:52;12.48;;;7.30;;
73585;SDS011;61865;50.232;18.614;2022-10-16T10:31:24;12.07;;;7.28;;
73585;SDS011;61865;50.232;18.614;2022-10-16T10:36:22;13.23;;;7.65;;
73585;SDS011;61865;50.232;18.614;2022-10-16T10:38:52;16.10;;;7.32;;
73585;SDS011;61865;50.232;18.614;2022-10-16T10:41:27;9.05;;;7.10;;
73585;SDS011;61865;50.232;18.614;2022-10-16T10:44:03;17.85;;;7.15;;
73585;SDS011;61865;50.232;18.614;2022-10-16T10:46:35;12.70;;;7.30;;
73585;SDS011;61865;50.232;18.614;2022-10-16T10:49:20;15.20;;;7.82;;
73585;SDS011;61865;50.232;18.614;2022-10-16T10:51:54;17.25;;;7.80;;
73585;SDS011;61865;50.232;18.614;2022-10-16T10:54:30;14.07;;;8.10;;
73585;SDS011;61865;50.232;18.614;2022-10-16T10:56:57;10.93;;;6.75;;
73585;SDS011;61865;50.232;18.614;2022-10-16T10:59:27;11.45;;;7.20;;
73585;SDS011;61865;50.232;18.614;2022-10-16T11:02:10;12.07;;;7.10;;
73585;SDS011;61865;50.232;18.614;2022-10-16T11:07:39;12.43;;;7.85;;
73585;SDS011;61865;50.232;18.614;2022-10-16T11:10:12;14.73;;;8.30;;
73585;SDS011;61865;50.232;18.614;2022-10-16T11:12:38;15.40;;;7.45;;
73585;SDS011;61865;50.232;18.614;2022-10-16T11:15:04;9.68;;;6.60;;
73585;SDS011;61865;50.232;18.614;2022-10-16T11:17:34;11.40;;;7.83;;
73585;SDS011;61865;50.232;18.614;2022-10-16T11:20:00;12.60;;;7.53;;
73585;SDS011;61865;50.232;18.614;2022-10-16T11:22:33;9.88;;;7.03;;
73585;SDS011;61865;50.232;18.614;2022-10-16T11:25:00;14.77;;;7.55;;
73585;SDS011;61865;50.232;18.614;2022-10-16T11:27:33;12.38;;;6.95;;
73585;SDS011;61865;50.232;18.614;2022-10-16T11:32:24;11.82;;;6.93;;
73585;SDS011;61865;50.232;18.614;2022-10-16T11:34:55;11.95;;;7.25;;
73585;SDS011;61865;50.232;18.614;2022-10-16T11:37:21;16.05;;;7.55;;
73585;SDS011;61865;50.232;18.614;2022-10-16T11:39:48;18.27;;;7.38;;
73585;SDS011;61865;50.232;18.614;2022-10-16T11:42:16;13.25;;;7.90;;
73585;SDS011;61865;50.232;18.614;2022-10-16T11:44:46;19.45;;;7.47;;
73585;SDS011;61865;50.232;18.614;2022-10-16T11:47:18;13.50;;;7.63;;
73585;SDS011;61865;50.232;18.614;2022-10-16T11:49:47;12.35;;;7.22;;
73585;SDS011;61865;50.232;18.614;2022-10-16T11:52:15;13.23;;;7.05;;
73585;SDS011;61865;50.232;18.614;2022-10-16T11:54:43;13.55;;;7.47;;
73585;SDS011;61865;50.232;18.614;2022-10-16T11:57:11;18.45;;;8.07;;
73585;SDS011;61865;50.232;18.614;2022-10-16T11:59:39;12.77;;;7.40;;
73585;SDS011;61865;50.232;18.614;2022-10-16T12:02:14;15.95;;;7.85;;
73585;SDS011;61865;50.232;18.614;2022-10-16T12:04:48;28.48;;;11.55;;
73585;SDS011;61865;50.232;18.614;2022-10-16T12:07:19;16.17;;;8.98;;
73585;SDS011;61865;50.232;18.614;2022-10-16T12:09:45;15.57;;;7.60;;
73585;SDS011;61865;50.232;18.614;2022-10-16T12:14:48;11.70;;;7.72;;
73585;SDS011;61865;50.232;18.614;2022-10-16T12:17:25;13.48;;;6.60;;
73585;SDS011;61865;50.232;18.614;2022-10-16T12:19:58;12.13;;;6.80;;
73585;SDS011;61865;50.232;18.614;2022-10-16T12:22:21;11.82;;;6.85;;
73585;SDS011;61865;50.232;18.614;2022-10-16T12:24:45;10.70;;;6.80;;
73585;SDS011;61865;50.232;18.614;2022-10-16T12:27:20;12.95;;;6.63;;
73585;SDS011;61865;50.232;18.614;2022-10-16T12:29:45;10.52;;;7.03;;
73585;SDS011;61865;50.232;18.614;2022-10-16T12:32:19;11.88;;;6.68;;
73585;SDS011;61865;50.232;18.614;2022-10-16T12:34:49;9.95;;;6.57;;
73585;SDS011;61865;50.232;18.614;2022-10-16T12:37:13;11.18;;;6.75;;
73585;SDS011;61865;50.232;18.614;2022-10-16T12:39:41;13.52;;;6.95;;
73585;SDS011;61865;50.232;18.614;2022-10-16T12:42:04;11.00;;;6.63;;
73585;SDS011;61865;50.232;18.614;2022-10-16T12:44:40;8.70;;;6.15;;
73585;SDS011;61865;50.232;18.614;2022-10-16T12:47:02;14.68;;;6.90;;
73585;SDS011;61865;50.232;18.614;2022-10-16T12:49:30;10.80;;;6.43;;
73585;SDS011;61865;50.232;18.614;2022-10-16T12:51:58;11.00;;;7.13;;
73585;SDS011;61865;50.232;18.614;2022-10-16T12:54:20;10.52;;;7.10;;
73585;SDS011;61865;50.232;18.614;2022-10-16T12:56:51;19.52;;;6.45;;
73585;SDS011;61865;50.232;18.614;2022-10-16T12:59:35;11.15;;;6.90;;
73585;SDS011;61865;50.232;18.614;2022-10-16T13:05:08;15.68;;;6.88;;
73585;SDS011;61865;50.232;18.614;2022-10-16T13:07:47;10.88;;;6.93;;
73585;SDS011;61865;50.232;18.614;2022-10-16T13:10:19;14.15;;;6.97;;
73585;SDS011;61865;50.232;18.614;2022-10-16T13:12:51;13.82;;;7.72;;
73585;SDS011;61865;50.232;18.614;2022-10-16T13:15:40;15.95;;;7.05;;
73585;SDS011;61865;50.232;18.614;2022-10-16T13:18:16;17.05;;;7.57;;
73585;SDS011;61865;50.232;18.614;2022-10-16T13:20:51;10.02;;;6.97;;
73585;SDS011;61865;50.232;18.614;2022-10-16T13:23:24;13.60;;;7.40;;
73585;SDS011;61865;50.232;18.614;2022-10-16T13:25:56;12.40;;;6.72;;
73585;SDS011;61865;50.232;18.614;2022-10-16T13:28:27;12.50;;;7.25;;
73585;SDS011;61865;50.232;18.614;2022-10-16T13:30:52;10.25;;;7.50;;
73585;SDS011;61865;50.232;18.614;2022-10-16T13:33:16;10.73;;;6.18;;
73585;SDS011;61865;50.232;18.614;2022-10-16T13:35:46;13.15;;;7.25;;
73585;SDS011;61865;50.232;18.614;2022-10-16T13:38:11;13.05;;;7.03;;
73585;SDS011;61865;50.232;18.614;2022-10-16T13:40:36;15.80;;;7.38;;
73585;SDS011;61865;50.232;18.614;2022-10-16T13:42:59;16.38;;;7.25;;
73585;SDS011;61865;50.232;18.614;2022-10-16T13:45:22;15.57;;;7.45;;
73585;SDS011;61865;50.232;18.614;2022-10-16T13:47:46;12.93;;;7.65;;
73585;SDS011;61865;50.232;18.614;2022-10-16T13:50:10;13.85;;;7.47;;
73585;SDS011;61865;50.232;18.614;2022-10-16T13:52:34;13.63;;;7.38;;
73585;SDS011;61865;50.232;18.614;2022-10-16T13:54:57;15.20;;;7.55;;
73585;SDS011;61865;50.232;18.614;2022-10-16T13:57:21;11.52;;;7.35;;
73585;SDS011;61865;50.232;18.614;2022-10-16T13:59:44;16.85;;;7.90;;
73585;SDS011;61865;50.232;18.614;2022-10-16T14:02:14;11.20;;;7.15;;
73585;SDS011;61865;50.232;18.614;2022-10-16T14:04:41;11.98;;;7.25;;
73585;SDS011;61865;50.232;18.614;2022-10-16T14:07:03;13.35;;;8.13;;
73585;SDS011;61865;50.232;18.614;2022-10-16T14:09:25;13.90;;;7.00;;
73585;SDS011;61865;50.232;18.614;2022-10-16T14:11:52;10.88;;;7.22;;
73585;SDS011;61865;50.232;18.614;2022-10-16T14:14:18;11.73;;;7.90;;
73585;SDS011;61865;50.232;18.614;2022-10-16T14:16:41;14.85;;;7.88;;